createdAt,value
2022-08-31T00:02:13.511Z,26.05
2022-08-31T00:04:43.265Z,25.99
2022-08-31T00:07:12.036Z,25.94
2022-08-31T00:09:40.516Z,25.90
2022-08-31T00:12:09.490Z,25.83
2022-08-31T00:14:39.017Z,25.78
2022-08-31T00:17:08.676Z,25.77
2022-08-31T00:19:37.472Z,25.75
2022-08-31T00:22:06.100Z,25.71
2022-08-31T00:24:35.230Z,25.71
2022-08-31T00:27:03.875Z,25.68
2022-08-31T00:29:32.514Z,25.65
2022-08-31T00:32:01.093Z,25.69
2022-08-31T00:34:29.645Z,25.69
2022-08-31T00:36:58.434Z,25.68
2022-08-31T00:39:27.049Z,25.68
2022-08-31T00:41:55.875Z,25.68
2022-08-31T00:44:24.634Z,25.54
2022-08-31T00:46:53.328Z,25.39
2022-08-31T00:49:27.875Z,25.31
2022-08-31T00:52:08.135Z,25.31
2022-08-31T00:54:46.115Z,25.19
2022-08-31T00:57:16.650Z,25.11
2022-08-31T00:59:51.084Z,24.93
2022-08-31T01:02:20.241Z,24.71
2022-08-31T01:04:48.836Z,24.56
2022-08-31T01:07:17.605Z,24.44
2022-08-31T01:09:55.938Z,24.41
2022-08-31T01:12:26.413Z,24.37
2022-08-31T01:14:56.093Z,24.34
2022-08-31T01:17:25.155Z,24.27
2022-08-31T01:19:58.984Z,24.28
2022-08-31T01:22:52.679Z,24.25
2022-08-31T01:25:21.800Z,24.25
2022-08-31T01:27:50.454Z,24.35
2022-08-31T01:30:25.904Z,24.25
2022-08-31T01:32:54.715Z,24.04
2022-08-31T01:35:23.195Z,23.92
2022-08-31T01:37:52.674Z,23.84
2022-08-31T01:40:21.648Z,23.73
2022-08-31T01:42:50.200Z,23.65
2022-08-31T01:45:18.915Z,23.51
2022-08-31T01:47:47.516Z,23.42
2022-08-31T01:50:16.349Z,23.29
2022-08-31T01:52:44.831Z,23.12
2022-08-31T01:55:13.465Z,22.99
2022-08-31T01:57:42.074Z,22.86
2022-08-31T02:00:11.831Z,22.78
2022-08-31T02:02:42.021Z,22.62
2022-08-31T02:05:11.870Z,22.49
2022-08-31T02:07:40.515Z,22.44
2022-08-31T02:10:09.955Z,22.39
2022-08-31T02:12:38.430Z,22.33
2022-08-31T02:15:07.549Z,22.29
2022-08-31T02:17:36.025Z,22.24
2022-08-31T02:20:08.335Z,22.22
2022-08-31T02:22:37.310Z,22.17
2022-08-31T02:25:06.719Z,22.07
2022-08-31T02:27:38.592Z,21.99
2022-08-31T02:30:10.430Z,21.94
2022-08-31T02:32:39.382Z,21.82
2022-08-31T02:35:09.509Z,21.71
2022-08-31T02:37:38.270Z,21.64
2022-08-31T02:40:09.590Z,21.49
2022-08-31T02:42:53.827Z,21.41
2022-08-31T02:45:23.870Z,21.35
2022-08-31T02:47:52.515Z,21.29
2022-08-31T02:50:21.453Z,21.25
2022-08-31T02:52:51.614Z,21.21
2022-08-31T02:55:22.145Z,21.19
2022-08-31T02:57:51.195Z,21.15
2022-08-31T03:00:22.375Z,21.07
2022-08-31T03:02:52.122Z,20.98
2022-08-31T03:05:21.935Z,20.88
2022-08-31T03:07:51.249Z,20.80
2022-08-31T03:10:22.214Z,20.75
2022-08-31T03:12:51.635Z,20.67
2022-08-31T03:15:22.411Z,20.61
2022-08-31T03:17:51.130Z,20.57
2022-08-31T03:20:21.454Z,20.50
2022-08-31T03:22:50.465Z,20.44
2022-08-31T03:25:20.670Z,20.44
2022-08-31T03:27:49.169Z,20.42
2022-08-31T03:30:21.950Z,20.43
2022-08-31T03:32:52.134Z,20.39
2022-08-31T03:35:24.189Z,20.33
2022-08-31T03:37:53.789Z,20.28
2022-08-31T03:40:22.322Z,20.19
2022-08-31T03:42:51.146Z,20.16
2022-08-31T03:45:19.714Z,20.12
2022-08-31T03:47:48.274Z,20.13
2022-08-31T03:50:17.311Z,20.14
2022-08-31T03:52:45.796Z,20.08
2022-08-31T03:55:14.754Z,20.07
2022-08-31T03:57:43.356Z,19.96
2022-08-31T04:00:12.670Z,19.93
2022-08-31T04:02:42.341Z,19.92
2022-08-31T04:05:14.429Z,19.93
2022-08-31T04:07:43.518Z,19.92
2022-08-31T04:10:16.030Z,19.92
2022-08-31T04:12:44.636Z,19.88
2022-08-31T04:15:13.275Z,19.90
2022-08-31T04:17:41.795Z,19.92
2022-08-31T04:20:10.744Z,19.93
2022-08-31T04:22:39.515Z,19.87
2022-08-31T04:25:10.013Z,19.84
2022-08-31T04:27:39.299Z,19.81
2022-08-31T04:30:09.109Z,19.73
2022-08-31T04:32:37.790Z,19.60
2022-08-31T04:35:06.785Z,19.57
2022-08-31T04:37:35.515Z,19.59
2022-08-31T04:40:04.711Z,19.61
2022-08-31T04:42:33.735Z,19.61
2022-08-31T04:45:02.205Z,19.58
2022-08-31T04:47:30.749Z,19.52
2022-08-31T04:49:59.171Z,19.51
2022-08-31T04:52:28.234Z,19.50
2022-08-31T04:54:57.564Z,19.44
2022-08-31T04:57:26.045Z,19.40
2022-08-31T04:59:54.555Z,19.35
2022-08-31T05:02:23.252Z,19.31
2022-08-31T05:04:51.799Z,19.29
2022-08-31T05:07:20.830Z,19.23
2022-08-31T05:09:49.311Z,19.26
2022-08-31T05:12:17.769Z,19.26
2022-08-31T05:14:46.374Z,19.21
2022-08-31T05:17:17.630Z,19.18
2022-08-31T05:19:46.550Z,19.16
2022-08-31T05:22:15.530Z,19.15
2022-08-31T05:24:44.031Z,19.16
2022-08-31T05:27:12.660Z,19.15
2022-08-31T05:29:41.131Z,19.14
2022-08-31T05:32:09.770Z,19.14
2022-08-31T05:34:40.260Z,19.11
2022-08-31T05:37:08.784Z,19.07
2022-08-31T05:39:37.470Z,19.03
2022-08-31T05:42:08.624Z,19.02
2022-08-31T05:44:38.374Z,19.02
2022-08-31T05:47:10.671Z,18.98
2022-08-31T05:49:41.342Z,18.98
2022-08-31T05:52:10.264Z,18.93
2022-08-31T05:54:41.080Z,18.93
2022-08-31T05:57:10.134Z,18.86
2022-08-31T05:59:40.849Z,18.85
2022-08-31T06:02:12.607Z,18.83
2022-08-31T06:04:41.099Z,18.83
2022-08-31T06:07:11.550Z,18.83
2022-08-31T06:09:43.560Z,18.83
2022-08-31T06:12:12.339Z,18.83
2022-08-31T06:14:45.631Z,18.82
2022-08-31T06:17:18.549Z,18.79
2022-08-31T06:19:47.385Z,18.77
2022-08-31T06:22:15.876Z,18.74
2022-08-31T06:24:44.477Z,18.65
2022-08-31T06:27:12.991Z,18.63
2022-08-31T06:29:43.252Z,18.59
2022-08-31T06:32:14.885Z,18.58
2022-08-31T06:34:44.610Z,18.57
2022-08-31T06:37:18.583Z,18.53
2022-08-31T06:39:48.785Z,18.53
2022-08-31T06:42:17.636Z,18.56
2022-08-31T06:44:46.589Z,18.55
2022-08-31T06:47:15.214Z,18.56
2022-08-31T06:49:43.870Z,18.53
2022-08-31T06:52:12.827Z,18.52
2022-08-31T06:54:42.429Z,18.47
2022-08-31T06:57:10.910Z,18.43
2022-08-31T06:59:40.349Z,18.41
2022-08-31T07:02:09.030Z,18.36
2022-08-31T07:04:39.605Z,18.29
2022-08-31T07:07:12.349Z,18.25
2022-08-31T07:09:42.430Z,18.20
2022-08-31T07:12:11.274Z,18.16
2022-08-31T07:14:40.190Z,18.13
2022-08-31T07:17:10.104Z,18.07
2022-08-31T07:19:38.554Z,18.04
2022-08-31T07:22:13.491Z,18.01
2022-08-31T07:24:44.160Z,18.01
2022-08-31T07:27:17.474Z,17.99
2022-08-31T07:29:46.394Z,17.96
2022-08-31T07:32:17.149Z,17.95
2022-08-31T07:34:45.715Z,17.90
2022-08-31T07:37:43.550Z,17.86
2022-08-31T07:40:31.155Z,17.82
2022-08-31T07:43:05.405Z,17.78
2022-08-31T07:45:37.764Z,17.75
2022-08-31T07:48:08.623Z,17.73
2022-08-31T07:50:39.189Z,17.69
2022-08-31T07:53:09.754Z,17.64
2022-08-31T07:55:38.874Z,17.61
2022-08-31T07:58:07.677Z,17.59
2022-08-31T08:00:44.296Z,17.59
2022-08-31T08:03:14.350Z,17.58
2022-08-31T08:05:43.069Z,17.54
2022-08-31T08:08:15.750Z,17.52
2022-08-31T08:10:52.261Z,17.52
2022-08-31T08:13:21.815Z,17.48
2022-08-31T08:15:53.359Z,17.46
2022-08-31T08:18:22.267Z,17.44
2022-08-31T08:20:52.326Z,17.39
2022-08-31T08:23:28.364Z,17.36
2022-08-31T08:26:02.281Z,17.33
2022-08-31T08:28:40.830Z,17.33
2022-08-31T08:31:19.139Z,17.31
2022-08-31T08:33:47.870Z,17.27
2022-08-31T08:36:19.204Z,17.26
2022-08-31T08:38:52.304Z,17.24
2022-08-31T08:41:27.551Z,17.21
2022-08-31T08:44:00.032Z,17.16
2022-08-31T08:46:44.474Z,17.12
2022-08-31T08:49:20.599Z,17.09
2022-08-31T08:51:54.894Z,17.06
2022-08-31T08:54:33.389Z,17.01
2022-08-31T08:57:05.150Z,16.98
2022-08-31T08:59:33.790Z,16.93
2022-08-31T09:02:07.563Z,16.91
2022-08-31T09:05:00.830Z,16.87
2022-08-31T09:07:52.025Z,16.85
2022-08-31T09:10:23.530Z,16.80
2022-08-31T09:13:37.239Z,16.76
2022-08-31T09:16:43.070Z,16.75
2022-08-31T09:19:18.205Z,16.72
2022-08-31T09:21:58.749Z,16.67
2022-08-31T09:24:31.351Z,16.65
2022-08-31T09:27:18.930Z,16.64
2022-08-31T09:29:49.157Z,16.63
2022-08-31T09:32:26.599Z,16.59
2022-08-31T09:35:31.390Z,16.57
2022-08-31T09:38:03.391Z,16.55
2022-08-31T09:40:44.100Z,16.54
2022-08-31T09:43:26.165Z,16.49
2022-08-31T09:46:14.533Z,16.47
2022-08-31T09:48:57.115Z,16.47
2022-08-31T09:51:37.472Z,16.45
2022-08-31T09:54:36.190Z,16.46
2022-08-31T09:57:07.545Z,16.45
2022-08-31T09:59:46.975Z,16.42
2022-08-31T10:02:27.755Z,16.42
2022-08-31T10:05:07.317Z,16.44
2022-08-31T10:07:59.516Z,16.43
2022-08-31T10:10:38.236Z,16.42
2022-08-31T10:13:35.355Z,16.39
2022-08-31T10:16:29.363Z,16.35
2022-08-31T10:19:23.231Z,16.34
2022-08-31T10:22:01.149Z,16.33
2022-08-31T10:25:05.475Z,16.31
2022-08-31T10:27:44.497Z,16.32
2022-08-31T10:30:29.180Z,16.31
2022-08-31T10:33:27.073Z,16.33
2022-08-31T10:36:02.758Z,16.32
2022-08-31T10:38:38.875Z,16.32
2022-08-31T10:41:19.390Z,16.29
2022-08-31T10:44:07.710Z,16.27
2022-08-31T10:46:36.435Z,16.26
2022-08-31T10:49:08.637Z,16.28
2022-08-31T10:51:52.031Z,16.26
2022-08-31T10:54:29.837Z,16.28
2022-08-31T10:57:09.641Z,16.27
2022-08-31T11:00:10.055Z,16.28
2022-08-31T11:02:47.392Z,16.31
2022-08-31T11:05:33.790Z,16.33
2022-08-31T11:08:29.791Z,16.37
2022-08-31T11:11:00.219Z,16.42
2022-08-31T11:13:41.305Z,16.46
2022-08-31T11:16:37.468Z,16.49
2022-08-31T11:19:27.506Z,16.54
2022-08-31T11:22:35.696Z,16.59
2022-08-31T11:25:35.230Z,16.67
2022-08-31T11:28:15.155Z,16.73
2022-08-31T11:30:50.896Z,16.78
2022-08-31T11:33:29.150Z,16.84
2022-08-31T11:36:07.265Z,16.87
2022-08-31T11:39:14.228Z,16.92
2022-08-31T11:41:50.111Z,16.99
2022-08-31T11:44:34.758Z,17.06
2022-08-31T11:47:30.596Z,17.12
2022-08-31T11:50:05.757Z,17.17
2022-08-31T11:52:42.015Z,17.21
2022-08-31T11:55:16.188Z,17.24
2022-08-31T11:58:11.030Z,17.29
2022-08-31T12:00:59.869Z,17.32
2022-08-31T12:03:53.542Z,17.36
2022-08-31T12:06:29.111Z,17.39
2022-08-31T12:09:33.619Z,17.41
2022-08-31T12:12:31.070Z,17.45
2022-08-31T12:15:14.757Z,17.42
2022-08-31T12:18:05.870Z,17.44
2022-08-31T12:21:15.355Z,17.41
2022-08-31T12:24:18.830Z,17.39
2022-08-31T12:26:57.930Z,17.40
2022-08-31T12:29:35.834Z,17.41
2022-08-31T12:32:15.835Z,17.44
2022-08-31T12:35:02.099Z,17.39
2022-08-31T12:37:33.149Z,17.40
2022-08-31T12:40:22.459Z,17.40
2022-08-31T12:43:09.615Z,17.45
2022-08-31T12:45:56.884Z,17.48
2022-08-31T12:48:55.390Z,17.48
2022-08-31T12:51:50.880Z,17.50
2022-08-31T12:54:19.355Z,17.53
2022-08-31T12:57:06.051Z,17.54
2022-08-31T13:00:00.586Z,17.58
2022-08-31T13:02:33.767Z,17.61
2022-08-31T13:05:04.675Z,17.63
2022-08-31T13:07:36.990Z,17.64
2022-08-31T13:10:35.071Z,17.67
2022-08-31T13:13:09.950Z,17.69
2022-08-31T13:15:41.511Z,17.67
2022-08-31T13:18:16.351Z,17.69
2022-08-31T13:20:47.031Z,17.65
2022-08-31T13:23:24.990Z,17.62
2022-08-31T13:26:06.076Z,17.64
2022-08-31T13:28:35.990Z,17.66
2022-08-31T13:31:11.913Z,17.70
2022-08-31T13:33:41.602Z,17.73
2022-08-31T13:36:35.070Z,17.76
2022-08-31T13:39:16.627Z,17.74
2022-08-31T13:42:12.675Z,17.75
2022-08-31T13:44:45.310Z,17.74
2022-08-31T13:47:37.956Z,17.76
2022-08-31T13:50:25.518Z,17.78
2022-08-31T13:53:25.316Z,17.78
2022-08-31T13:55:49.739Z,17.79
2022-08-31T13:58:33.911Z,17.80
2022-08-31T14:01:46.668Z,17.77
2022-08-31T14:05:01.631Z,17.76
2022-08-31T14:07:41.950Z,17.73
2022-08-31T14:10:22.272Z,17.75
2022-08-31T14:13:03.871Z,17.75
2022-08-31T14:15:42.055Z,17.74
2022-08-31T14:18:46.180Z,17.74
2022-08-31T14:21:22.309Z,17.76
2022-08-31T14:23:54.110Z,17.78
2022-08-31T14:26:27.029Z,17.79
2022-08-31T14:29:01.315Z,17.78
2022-08-31T14:31:42.751Z,17.78
2022-08-31T14:34:35.036Z,17.80
2022-08-31T14:37:20.634Z,17.86
2022-08-31T14:40:08.163Z,17.87
2022-08-31T14:42:39.675Z,17.92
2022-08-31T14:45:22.750Z,17.94
2022-08-31T14:47:54.430Z,17.96
2022-08-31T14:50:28.155Z,17.97
2022-08-31T14:52:58.715Z,17.92
2022-08-31T14:55:30.915Z,17.90
2022-08-31T14:58:07.880Z,17.95
2022-08-31T15:00:52.665Z,17.96
2022-08-31T15:03:25.220Z,17.99
2022-08-31T15:05:53.670Z,18.02
2022-08-31T15:08:37.845Z,18.07
2022-08-31T15:11:07.529Z,18.13
2022-08-31T15:13:40.084Z,18.19
2022-08-31T15:16:12.233Z,18.20
2022-08-31T15:18:43.341Z,18.25
2022-08-31T15:21:13.114Z,18.26
2022-08-31T15:23:43.030Z,18.32
2022-08-31T15:26:15.870Z,18.38
2022-08-31T15:28:44.368Z,18.40
2022-08-31T15:31:28.408Z,18.40
2022-08-31T15:34:01.428Z,18.39
2022-08-31T15:36:30.415Z,18.36
2022-08-31T15:38:59.975Z,18.37
2022-08-31T15:41:30.439Z,18.42
2022-08-31T15:43:58.896Z,18.43
2022-08-31T15:46:45.575Z,18.43
2022-08-31T15:49:14.270Z,18.47
2022-08-31T15:51:50.915Z,18.49
2022-08-31T15:54:23.017Z,18.54
2022-08-31T15:56:53.505Z,18.58
2022-08-31T15:59:25.754Z,18.56
2022-08-31T16:01:54.551Z,18.55
2022-08-31T16:04:26.434Z,18.55
2022-08-31T16:06:55.741Z,18.49
2022-08-31T16:09:24.508Z,18.57
2022-08-31T16:11:53.324Z,18.68
2022-08-31T16:14:22.405Z,18.79
2022-08-31T16:16:53.006Z,18.89
2022-08-31T16:19:34.640Z,18.96
2022-08-31T16:22:07.041Z,19.04
2022-08-31T16:24:38.155Z,19.08
2022-08-31T16:27:13.955Z,19.14
2022-08-31T16:29:46.660Z,19.21
2022-08-31T16:32:15.395Z,19.23
2022-08-31T16:34:44.029Z,19.31
2022-08-31T16:37:12.835Z,19.35
2022-08-31T16:39:44.000Z,19.39
2022-08-31T16:42:13.638Z,19.42
2022-08-31T16:44:48.037Z,19.57
2022-08-31T16:47:19.611Z,19.66
2022-08-31T16:49:48.349Z,19.65
2022-08-31T16:52:25.309Z,19.65
2022-08-31T16:54:54.920Z,19.72
2022-08-31T16:57:28.137Z,19.75
2022-08-31T17:00:00.513Z,19.79
2022-08-31T17:02:29.854Z,19.92
2022-08-31T17:05:01.614Z,20.02
2022-08-31T17:07:30.229Z,20.13
2022-08-31T17:10:02.910Z,20.13
2022-08-31T17:12:33.355Z,20.19
2022-08-31T17:15:04.683Z,20.19
2022-08-31T17:17:34.064Z,20.22
2022-08-31T17:20:02.754Z,20.27
2022-08-31T17:22:34.025Z,20.29
2022-08-31T17:25:05.244Z,20.27
2022-08-31T17:27:35.871Z,20.21
2022-08-31T17:30:08.029Z,20.24
2022-08-31T17:32:44.734Z,20.30
2022-08-31T17:35:19.709Z,20.39
2022-08-31T17:37:49.425Z,20.43
2022-08-31T17:40:18.794Z,20.51
2022-08-31T17:42:47.535Z,20.57
2022-08-31T17:45:16.676Z,20.60
2022-08-31T17:47:45.271Z,20.66
2022-08-31T17:50:18.109Z,20.69
2022-08-31T17:52:48.350Z,20.68
2022-08-31T17:55:17.114Z,20.76
2022-08-31T17:57:47.029Z,20.89
2022-08-31T18:00:16.956Z,20.89
2022-08-31T18:02:45.983Z,20.98
2022-08-31T18:05:17.156Z,21.02
2022-08-31T18:07:45.754Z,21.05
2022-08-31T18:10:15.727Z,21.14
2022-08-31T18:12:44.309Z,21.26
2022-08-31T18:15:14.874Z,21.36
2022-08-31T18:17:44.194Z,21.38
2022-08-31T18:20:13.624Z,21.45
2022-08-31T18:22:42.112Z,21.55
2022-08-31T18:25:11.394Z,21.61
2022-08-31T18:27:40.047Z,21.62
2022-08-31T18:30:10.289Z,21.67
2022-08-31T18:32:38.739Z,21.76
2022-08-31T18:35:18.555Z,21.86
2022-08-31T18:37:47.044Z,22.01
2022-08-31T18:40:34.444Z,22.09
2022-08-31T18:43:21.474Z,22.19
2022-08-31T18:45:51.633Z,22.30
2022-08-31T18:48:32.100Z,22.37
2022-08-31T18:51:04.037Z,22.40
2022-08-31T18:53:35.560Z,22.48
2022-08-31T18:56:11.056Z,22.56
2022-08-31T18:58:40.934Z,22.64
2022-08-31T19:01:12.106Z,22.70
2022-08-31T19:03:42.206Z,22.81
2022-08-31T19:06:21.795Z,22.93
2022-08-31T19:08:51.189Z,23.11
2022-08-31T19:11:23.845Z,23.22
2022-08-31T19:13:53.606Z,23.27
2022-08-31T19:16:26.282Z,23.33
2022-08-31T19:18:58.500Z,23.41
2022-08-31T19:21:30.754Z,23.42
2022-08-31T19:24:01.832Z,23.52
2022-08-31T19:26:35.175Z,23.69
2022-08-31T19:29:07.995Z,23.82
2022-08-31T19:31:41.837Z,24.05
2022-08-31T19:34:10.582Z,24.24
2022-08-31T19:36:41.708Z,24.31
2022-08-31T19:39:13.396Z,24.43
2022-08-31T19:41:52.214Z,24.47
2022-08-31T19:44:23.350Z,24.55
2022-08-31T19:46:53.042Z,24.74
2022-08-31T19:49:21.926Z,24.86
2022-08-31T19:51:57.955Z,24.96
2022-08-31T19:54:31.312Z,25.03
2022-08-31T19:57:00.810Z,25.12
2022-08-31T19:59:29.310Z,25.25
2022-08-31T20:01:58.638Z,25.25
2022-08-31T20:04:29.730Z,25.31
2022-08-31T20:06:58.897Z,25.36
2022-08-31T20:09:28.043Z,25.45
2022-08-31T20:11:59.115Z,25.57
2022-08-31T20:14:27.852Z,25.67
2022-08-31T20:16:56.480Z,25.74
2022-08-31T20:19:31.386Z,25.84
2022-08-31T20:22:08.710Z,25.99
2022-08-31T20:24:44.077Z,26.17
2022-08-31T20:27:18.894Z,26.22
2022-08-31T20:29:49.170Z,26.36
2022-08-31T20:32:17.789Z,26.33
2022-08-31T20:34:46.402Z,26.33
2022-08-31T20:37:14.910Z,26.42
2022-08-31T20:39:44.018Z,26.54
2022-08-31T20:42:12.679Z,26.78
2022-08-31T20:44:41.433Z,27.08
2022-08-31T20:47:30.221Z,27.26
2022-08-31T20:50:03.404Z,27.35
2022-08-31T20:52:38.655Z,27.46
2022-08-31T20:55:08.761Z,27.71
2022-08-31T20:57:42.116Z,27.90
2022-08-31T21:00:12.035Z,27.95
2022-08-31T21:02:43.530Z,27.95
2022-08-31T21:05:37.099Z,28.07
2022-08-31T21:08:03.874Z,28.35
2022-08-31T21:10:37.043Z,28.50
2022-08-31T21:13:09.285Z,28.53
2022-08-31T21:15:42.808Z,28.52
2022-08-31T21:18:12.350Z,28.76
2022-08-31T21:20:40.902Z,29.07
2022-08-31T21:23:11.550Z,29.21
2022-08-31T21:25:45.842Z,29.25
2022-08-31T21:28:18.227Z,29.32
2022-08-31T21:30:50.452Z,29.51
2022-08-31T21:33:19.494Z,29.74
2022-08-31T21:35:48.799Z,29.93
2022-08-31T21:38:19.172Z,29.96
2022-08-31T21:40:51.743Z,30.04
2022-08-31T21:43:20.803Z,30.26
2022-08-31T21:45:55.194Z,30.44
2022-08-31T21:48:30.595Z,30.49
2022-08-31T21:50:59.549Z,30.49
2022-08-31T21:53:28.195Z,30.51
2022-08-31T21:55:57.435Z,30.59
2022-08-31T21:58:26.110Z,30.63
2022-08-31T22:00:56.440Z,30.62
2022-08-31T22:03:25.796Z,30.53
2022-08-31T22:05:55.553Z,30.42
2022-08-31T22:08:27.070Z,30.44
2022-08-31T22:10:55.995Z,30.37
2022-08-31T22:13:24.496Z,30.57
2022-08-31T22:15:57.608Z,30.82
2022-08-31T22:18:59.610Z,30.97
2022-08-31T22:21:23.911Z,30.96
2022-08-31T22:23:55.982Z,30.95
2022-08-31T22:26:28.791Z,30.92
2022-08-31T22:28:57.390Z,30.95
2022-08-31T22:31:26.331Z,30.90
2022-08-31T22:33:55.150Z,30.99
2022-08-31T22:36:31.409Z,30.89
2022-08-31T22:39:11.080Z,30.81
2022-08-31T22:41:42.248Z,30.75
2022-08-31T22:44:13.472Z,30.78
2022-08-31T22:46:42.064Z,30.76
2022-08-31T22:49:10.691Z,30.60
2022-08-31T22:51:41.786Z,30.47
2022-08-31T22:54:11.990Z,30.47
2022-08-31T22:56:41.431Z,30.34
2022-08-31T22:59:15.031Z,30.22
2022-08-31T23:01:48.534Z,30.00
2022-08-31T23:04:20.959Z,29.77
2022-08-31T23:06:52.690Z,29.45
2022-08-31T23:09:24.515Z,29.29
2022-08-31T23:11:52.995Z,29.16
2022-08-31T23:14:22.149Z,29.10
2022-08-31T23:17:00.196Z,28.98
2022-08-31T23:19:38.720Z,28.91
2022-08-31T23:22:10.298Z,28.81
2022-08-31T23:24:48.205Z,28.75
2022-08-31T23:27:22.508Z,28.72
2022-08-31T23:29:54.255Z,28.67
2022-08-31T23:32:27.310Z,28.48
2022-08-31T23:34:59.185Z,28.28
2022-08-31T23:37:31.209Z,28.23
2022-08-31T23:40:01.015Z,28.20
2022-08-31T23:42:30.607Z,28.13
2022-08-31T23:44:59.986Z,28.06
2022-08-31T23:47:33.416Z,27.95
2022-08-31T23:50:04.017Z,27.86
2022-08-31T23:52:42.442Z,27.75
2022-08-31T23:55:12.036Z,27.68
2022-08-31T23:57:40.865Z,27.58
